createdAt,value
2018-05-15T00:00:09.164Z,6.85
2018-05-15T00:00:21.764Z,6.85
2018-05-15T00:00:34.197Z,6.85
2018-05-15T00:00:46.609Z,6.85
2018-05-15T00:00:59.009Z,6.85
2018-05-15T00:01:11.423Z,6.85
2018-05-15T00:01:23.840Z,6.85
2018-05-15T00:01:36.275Z,6.85
2018-05-15T00:01:48.717Z,6.85
2018-05-15T00:02:01.141Z,6.85
2018-05-15T00:02:13.566Z,6.85
2018-05-15T00:02:25.989Z,6.85
2018-05-15T00:02:38.389Z,6.85
2018-05-15T00:02:50.815Z,6.85
2018-05-15T00:03:03.230Z,6.85
2018-05-15T00:03:15.673Z,6.85
2018-05-15T00:03:28.098Z,6.85
2018-05-15T00:03:40.544Z,6.85
2018-05-15T00:03:52.963Z,6.85
2018-05-15T00:04:05.481Z,6.85
2018-05-15T00:04:17.898Z,6.85
2018-05-15T00:04:30.323Z,6.85
2018-05-15T00:04:42.812Z,6.85
2018-05-15T00:04:55.282Z,6.85
2018-05-15T00:05:07.718Z,6.85
2018-05-15T00:05:20.135Z,6.85
2018-05-15T00:05:32.563Z,6.85
2018-05-15T00:05:44.970Z,6.85
2018-05-15T00:05:57.367Z,6.85
2018-05-15T00:06:09.782Z,6.85
2018-05-15T00:06:22.186Z,6.85
2018-05-15T00:06:34.693Z,6.85
2018-05-15T00:06:47.118Z,6.85
2018-05-15T00:06:59.533Z,6.85
2018-05-15T00:07:11.974Z,6.85
2018-05-15T00:07:24.407Z,6.85
2018-05-15T00:07:36.818Z,6.85
2018-05-15T00:07:49.239Z,6.85
2018-05-15T00:08:01.720Z,6.85
2018-05-15T00:08:14.146Z,6.92
2018-05-15T00:08:26.561Z,6.92
2018-05-15T00:08:38.977Z,6.92
2018-05-15T00:08:51.402Z,6.92
2018-05-15T00:09:03.862Z,6.92
2018-05-15T00:09:16.635Z,6.92
2018-05-15T00:09:29.233Z,6.92
2018-05-15T00:09:41.650Z,6.92
2018-05-15T00:09:54.063Z,6.92
2018-05-15T00:10:06.471Z,6.92
2018-05-15T00:10:18.882Z,6.92
2018-05-15T00:10:31.303Z,6.92
2018-05-15T00:10:43.734Z,6.92
2018-05-15T00:10:56.150Z,6.92
2018-05-15T00:11:08.555Z,6.92
2018-05-15T00:11:20.973Z,6.92
2018-05-15T00:11:33.393Z,6.92
2018-05-15T00:11:45.954Z,6.92
2018-05-15T00:11:58.358Z,6.92
2018-05-15T00:12:10.829Z,6.92
2018-05-15T00:12:23.241Z,6.92
2018-05-15T00:12:35.654Z,6.92
2018-05-15T00:12:48.060Z,6.92
2018-05-15T00:13:00.538Z,6.92
2018-05-15T00:13:12.947Z,6.92
2018-05-15T00:13:25.365Z,6.92
2018-05-15T00:13:37.917Z,6.92
2018-05-15T00:13:50.344Z,6.92
2018-05-15T00:14:02.761Z,6.92
2018-05-15T00:14:15.218Z,6.92
2018-05-15T00:14:27.641Z,6.92
2018-05-15T00:14:40.086Z,6.92
2018-05-15T00:14:52.516Z,6.92
2018-05-15T00:15:04.937Z,6.92
2018-05-15T00:15:17.349Z,6.92
2018-05-15T00:15:29.844Z,6.92
2018-05-15T00:15:42.470Z,6.92
2018-05-15T00:15:54.882Z,6.92
2018-05-15T00:16:07.300Z,6.92
2018-05-15T00:16:19.788Z,6.92
2018-05-15T00:16:32.209Z,6.92
2018-05-15T00:16:44.638Z,6.92
2018-05-15T00:16:57.037Z,6.92
2018-05-15T00:17:09.464Z,6.92
2018-05-15T00:17:21.879Z,6.92
2018-05-15T00:17:34.294Z,6.92
2018-05-15T00:17:46.713Z,6.92
2018-05-15T00:17:59.133Z,6.92
2018-05-15T00:18:11.549Z,6.02
2018-05-15T00:18:24.104Z,6.02
2018-05-15T00:18:36.573Z,6.02
2018-05-15T00:18:48.988Z,6.02
2018-05-15T00:19:01.421Z,6.02
2018-05-15T00:19:13.834Z,6.02
2018-05-15T00:19:26.327Z,6.02
2018-05-15T00:19:38.744Z,6.02
2018-05-15T00:19:51.171Z,6.02
2018-05-15T00:20:03.591Z,6.02
2018-05-15T00:20:15.990Z,6.02
2018-05-15T00:20:28.404Z,6.02
2018-05-15T00:20:40.879Z,6.02
2018-05-15T00:20:53.289Z,6.02
2018-05-15T00:21:05.689Z,6.02
2018-05-15T00:21:18.111Z,6.02
2018-05-15T00:21:30.540Z,6.02
2018-05-15T00:21:42.949Z,6.02
2018-05-15T00:21:55.364Z,6.02
2018-05-15T00:22:07.776Z,6.02
2018-05-15T00:22:20.183Z,6.02
2018-05-15T00:22:32.602Z,6.02
2018-05-15T00:22:45.009Z,6.02
2018-05-15T00:22:57.437Z,6.02
2018-05-15T00:23:09.941Z,6.02
2018-05-15T00:23:22.404Z,6.02
2018-05-15T00:23:34.857Z,6.02
2018-05-15T00:23:47.283Z,6.02
2018-05-15T00:23:59.713Z,6.02
2018-05-15T00:24:12.122Z,6.02
2018-05-15T00:24:24.548Z,6.02
2018-05-15T00:24:37.044Z,6.02
2018-05-15T00:24:49.615Z,6.02
2018-05-15T00:25:02.029Z,6.02
2018-05-15T00:25:14.450Z,6.02
2018-05-15T00:25:26.865Z,6.02
2018-05-15T00:25:39.345Z,6.02
2018-05-15T00:25:51.770Z,6.02
2018-05-15T00:26:04.206Z,6.02
2018-05-15T00:26:16.617Z,6.02
2018-05-15T00:26:29.043Z,6.02
2018-05-15T00:26:41.465Z,6.02
2018-05-15T00:26:53.867Z,6.02
2018-05-15T00:27:06.300Z,6.02
2018-05-15T00:27:18.719Z,6.02
2018-05-15T00:27:31.129Z,6.02
2018-05-15T00:27:43.610Z,6.02
2018-05-15T00:27:56.023Z,6.02
2018-05-15T00:28:08.456Z,6.31
2018-05-15T00:28:20.877Z,6.31
2018-05-15T00:28:33.298Z,6.31
2018-05-15T00:28:45.703Z,6.31
2018-05-15T00:28:58.112Z,6.31
2018-05-15T00:29:10.521Z,6.31
2018-05-15T00:29:22.941Z,6.31
2018-05-15T00:29:35.361Z,6.31
2018-05-15T00:29:47.769Z,6.31
2018-05-15T00:30:00.219Z,6.31
2018-05-15T00:30:12.642Z,6.31
2018-05-15T00:30:25.049Z,6.31
2018-05-15T00:30:37.450Z,6.31
2018-05-15T00:30:49.876Z,6.31
2018-05-15T00:31:02.290Z,6.31
2018-05-15T00:31:14.842Z,6.31
2018-05-15T00:31:27.274Z,6.31
2018-05-15T00:31:39.689Z,6.31
2018-05-15T00:31:52.099Z,6.31
2018-05-15T00:32:04.528Z,6.31
2018-05-15T00:32:16.948Z,6.31
2018-05-15T00:32:29.377Z,6.31
2018-05-15T00:32:41.782Z,6.31
2018-05-15T00:32:54.273Z,6.31
2018-05-15T00:33:06.707Z,6.31
2018-05-15T00:33:19.217Z,6.31
2018-05-15T00:33:31.633Z,6.31
2018-05-15T00:33:44.061Z,6.31
2018-05-15T00:33:56.487Z,6.31
2018-05-15T00:34:08.905Z,6.31
2018-05-15T00:34:21.311Z,6.31
2018-05-15T00:34:33.762Z,6.31
2018-05-15T00:34:46.185Z,6.31
2018-05-15T00:34:58.620Z,6.31
2018-05-15T00:35:11.030Z,6.31
2018-05-15T00:35:23.435Z,6.31
2018-05-15T00:35:35.874Z,6.31
2018-05-15T00:35:48.289Z,6.31
2018-05-15T00:36:00.706Z,6.31
2018-05-15T00:36:13.297Z,6.31
2018-05-15T00:36:25.732Z,6.31
2018-05-15T00:36:38.201Z,6.31
2018-05-15T00:36:50.618Z,6.31
2018-05-15T00:37:03.015Z,6.31
2018-05-15T00:37:15.598Z,6.31
2018-05-15T00:37:28.022Z,6.31
2018-05-15T00:37:40.438Z,6.31
2018-05-15T00:37:52.846Z,6.31
2018-05-15T00:38:05.267Z,6.08
2018-05-15T00:38:17.672Z,6.08
2018-05-15T00:38:30.116Z,6.08
2018-05-15T00:38:42.589Z,6.08
2018-05-15T00:38:55.000Z,6.08
2018-05-15T00:39:07.467Z,6.08
2018-05-15T00:39:19.877Z,6.08
2018-05-15T00:39:32.306Z,6.08
2018-05-15T00:39:44.728Z,6.08
2018-05-15T00:39:57.148Z,6.08
2018-05-15T00:40:09.562Z,6.08
2018-05-15T00:40:21.969Z,6.08
2018-05-15T00:40:34.455Z,6.08
2018-05-15T00:40:46.876Z,6.08
2018-05-15T00:40:59.281Z,6.08
2018-05-15T00:41:11.713Z,6.08
2018-05-15T00:41:24.135Z,6.08
2018-05-15T00:41:36.546Z,6.08
2018-05-15T00:41:48.961Z,6.08
2018-05-15T00:42:01.379Z,6.08
2018-05-15T00:42:13.922Z,6.08
2018-05-15T00:42:26.351Z,6.08
2018-05-15T00:42:38.761Z,6.08
2018-05-15T00:42:51.221Z,6.08
2018-05-15T00:43:03.634Z,6.08
2018-05-15T00:43:16.043Z,6.08
2018-05-15T00:43:28.456Z,6.08
2018-05-15T00:43:40.871Z,6.08
2018-05-15T00:43:53.280Z,6.08
2018-05-15T00:44:05.715Z,6.08
2018-05-15T00:44:18.676Z,6.08
2018-05-15T00:44:31.535Z,6.08
2018-05-15T00:44:43.956Z,6.08
2018-05-15T00:44:56.372Z,6.08
2018-05-15T00:45:08.779Z,6.08
2018-05-15T00:45:21.208Z,6.08
2018-05-15T00:45:33.632Z,6.08
2018-05-15T00:45:46.052Z,6.08
2018-05-15T00:45:58.482Z,6.08
2018-05-15T00:46:10.884Z,6.08
2018-05-15T00:46:23.339Z,6.08
2018-05-15T00:46:35.752Z,6.08
2018-05-15T00:46:48.251Z,6.08
2018-05-15T00:47:00.746Z,6.08
2018-05-15T00:47:13.195Z,6.08
2018-05-15T00:47:25.601Z,6.08
2018-05-15T00:47:38.021Z,6.08
2018-05-15T00:47:50.445Z,6.08
2018-05-15T00:48:02.863Z,6.08
2018-05-15T00:48:15.272Z,6.48
2018-05-15T00:48:27.829Z,6.48
2018-05-15T00:48:40.239Z,6.48
2018-05-15T00:48:52.663Z,6.48
2018-05-15T00:49:05.101Z,6.48
2018-05-15T00:49:17.516Z,6.48
2018-05-15T00:49:29.937Z,6.48
2018-05-15T00:49:42.362Z,6.48
2018-05-15T00:49:54.778Z,6.48
2018-05-15T00:50:07.324Z,6.48
2018-05-15T00:50:19.742Z,6.48
2018-05-15T00:50:32.161Z,6.48
2018-05-15T00:50:44.580Z,6.48
2018-05-15T00:50:56.995Z,6.48
2018-05-15T00:51:09.414Z,6.48
2018-05-15T00:51:21.815Z,6.48
2018-05-15T00:51:34.224Z,6.48
2018-05-15T00:51:46.671Z,6.48
2018-05-15T00:51:59.383Z,6.48
2018-05-15T00:52:11.806Z,6.48
2018-05-15T00:52:24.232Z,6.48
2018-05-15T00:52:36.646Z,6.48
2018-05-15T00:52:49.057Z,6.48
2018-05-15T00:53:01.466Z,6.48
2018-05-15T00:53:13.886Z,6.48
2018-05-15T00:53:26.311Z,6.48
2018-05-15T00:53:38.731Z,6.48
2018-05-15T00:53:51.142Z,6.48
2018-05-15T00:54:03.606Z,6.48
2018-05-15T00:54:16.024Z,6.48
2018-05-15T00:54:28.707Z,6.48
2018-05-15T00:54:41.133Z,6.48
2018-05-15T00:54:53.620Z,6.48
2018-05-15T00:55:06.040Z,6.48
2018-05-15T00:55:18.448Z,6.48
2018-05-15T00:55:30.858Z,6.48
2018-05-15T00:55:43.273Z,6.48
2018-05-15T00:55:55.687Z,6.48
2018-05-15T00:56:08.104Z,6.48
2018-05-15T00:56:20.510Z,6.48
2018-05-15T00:56:32.941Z,6.48
2018-05-15T00:56:45.367Z,6.48
2018-05-15T00:56:57.823Z,6.48
2018-05-15T00:57:10.246Z,6.48
2018-05-15T00:57:22.677Z,6.48
2018-05-15T00:57:35.162Z,6.48
2018-05-15T00:57:47.561Z,6.48
2018-05-15T00:57:59.967Z,6.48
2018-05-15T00:58:12.391Z,7.45
2018-05-15T00:58:24.799Z,7.45
2018-05-15T00:58:37.200Z,7.45
2018-05-15T00:58:49.623Z,7.45
2018-05-15T00:59:02.042Z,7.45
2018-05-15T00:59:14.448Z,7.45
2018-05-15T00:59:26.851Z,7.45
2018-05-15T00:59:39.254Z,7.45
2018-05-15T00:59:51.669Z,7.45
2018-05-15T01:00:04.083Z,7.45
2018-05-15T01:00:16.668Z,7.45
2018-05-15T01:00:29.177Z,7.45
2018-05-15T01:00:41.621Z,7.45
2018-05-15T01:00:54.036Z,7.45
2018-05-15T01:01:06.544Z,7.45
2018-05-15T01:01:18.955Z,7.45
2018-05-15T01:01:31.367Z,7.45
2018-05-15T01:01:43.868Z,7.45
2018-05-15T01:01:56.333Z,7.45
2018-05-15T01:02:08.750Z,7.45
2018-05-15T01:02:21.156Z,7.45
2018-05-15T01:02:33.648Z,7.45
2018-05-15T01:02:46.085Z,7.45
2018-05-15T01:02:58.503Z,7.45
2018-05-15T01:03:10.937Z,7.45
2018-05-15T01:03:23.355Z,7.45
2018-05-15T01:03:35.772Z,7.45
2018-05-15T01:03:48.206Z,7.45
2018-05-15T01:04:00.618Z,7.45
2018-05-15T01:04:13.152Z,7.45
2018-05-15T01:04:25.561Z,7.45
2018-05-15T01:04:37.996Z,7.45
2018-05-15T01:04:50.428Z,7.45
2018-05-15T01:05:02.841Z,7.45
2018-05-15T01:05:15.283Z,7.45
2018-05-15T01:05:27.710Z,7.45
2018-05-15T01:05:40.145Z,7.45
2018-05-15T01:05:52.715Z,7.45
2018-05-15T01:06:05.149Z,7.45
2018-05-15T01:06:17.559Z,7.45
2018-05-15T01:06:29.971Z,7.45
2018-05-15T01:06:42.380Z,7.45
2018-05-15T01:06:54.796Z,7.45
2018-05-15T01:07:07.211Z,7.45
2018-05-15T01:07:19.626Z,7.45
2018-05-15T01:07:32.049Z,7.45
2018-05-15T01:07:44.466Z,7.45
2018-05-15T01:07:56.882Z,7.45
2018-05-15T01:08:09.304Z,6.21
2018-05-15T01:08:21.712Z,6.21
2018-05-15T01:08:34.142Z,6.21
2018-05-15T01:08:46.556Z,6.21
2018-05-15T01:08:58.966Z,6.21
2018-05-15T01:09:11.389Z,6.21
2018-05-15T01:09:23.890Z,6.21
2018-05-15T01:09:36.300Z,6.21
2018-05-15T01:09:48.697Z,6.21
2018-05-15T01:10:01.255Z,6.21
2018-05-15T01:10:13.693Z,6.21
2018-05-15T01:10:26.103Z,6.21
2018-05-15T01:10:38.522Z,6.21
2018-05-15T01:10:51.113Z,6.21
2018-05-15T01:11:03.538Z,6.21
2018-05-15T01:11:15.957Z,6.21
2018-05-15T01:11:28.361Z,6.21
2018-05-15T01:11:40.773Z,6.21
2018-05-15T01:11:53.349Z,6.21
2018-05-15T01:12:05.775Z,6.21
2018-05-15T01:12:18.191Z,6.21
2018-05-15T01:12:30.683Z,6.21
2018-05-15T01:12:43.098Z,6.21
2018-05-15T01:12:55.527Z,6.21
2018-05-15T01:13:07.943Z,6.21
2018-05-15T01:13:20.353Z,6.21
2018-05-15T01:13:32.921Z,6.21
2018-05-15T01:13:45.409Z,6.21
2018-05-15T01:13:57.835Z,6.21
2018-05-15T01:14:10.272Z,6.21
2018-05-15T01:14:22.696Z,6.21
2018-05-15T01:14:35.103Z,6.21
2018-05-15T01:14:47.538Z,6.21
2018-05-15T01:14:59.946Z,6.21
2018-05-15T01:15:12.349Z,6.21
2018-05-15T01:15:24.760Z,6.21
2018-05-15T01:15:37.256Z,6.21
2018-05-15T01:15:49.712Z,6.21
2018-05-15T01:16:02.125Z,6.21
2018-05-15T01:16:14.535Z,6.21
2018-05-15T01:16:26.939Z,6.21
2018-05-15T01:16:39.365Z,6.21
2018-05-15T01:16:51.770Z,6.21
2018-05-15T01:17:04.187Z,6.21
2018-05-15T01:17:16.610Z,6.21
2018-05-15T01:17:29.017Z,6.21
2018-05-15T01:17:41.425Z,6.21
2018-05-15T01:17:53.839Z,6.21
2018-05-15T01:18:06.252Z,6.21
2018-05-15T01:18:18.839Z,7.83
2018-05-15T01:18:31.302Z,7.83
2018-05-15T01:18:43.732Z,7.83
2018-05-15T01:18:56.135Z,7.83
2018-05-15T01:19:08.534Z,7.83
2018-05-15T01:19:20.938Z,7.83
2018-05-15T01:19:33.366Z,7.83
2018-05-15T01:19:45.774Z,7.83
2018-05-15T01:19:58.190Z,7.83
2018-05-15T01:20:10.609Z,7.83
2018-05-15T01:20:23.014Z,7.83
2018-05-15T01:20:35.430Z,7.83
2018-05-15T01:20:47.841Z,7.83
2018-05-15T01:21:00.325Z,7.83
2018-05-15T01:21:12.745Z,7.83
2018-05-15T01:21:25.172Z,7.83
2018-05-15T01:21:37.575Z,7.83
2018-05-15T01:21:49.987Z,7.83
2018-05-15T01:22:02.391Z,7.83
2018-05-15T01:22:14.818Z,7.83
2018-05-15T01:22:27.234Z,7.83
2018-05-15T01:22:39.658Z,7.83
2018-05-15T01:22:52.071Z,7.83
2018-05-15T01:23:04.508Z,7.83
2018-05-15T01:23:16.933Z,7.83
2018-05-15T01:23:29.364Z,7.83
2018-05-15T01:23:41.931Z,7.83
2018-05-15T01:23:54.337Z,7.83
2018-05-15T01:24:06.762Z,7.83
2018-05-15T01:24:19.172Z,7.83
2018-05-15T01:24:31.642Z,7.83
2018-05-15T01:24:44.065Z,7.83
2018-05-15T01:24:56.613Z,7.83
2018-05-15T01:25:09.037Z,7.83
2018-05-15T01:25:21.467Z,7.83
2018-05-15T01:25:33.887Z,7.83
2018-05-15T01:25:46.315Z,7.83
2018-05-15T01:25:58.722Z,7.83
2018-05-15T01:26:11.140Z,7.83
2018-05-15T01:26:23.571Z,7.83
2018-05-15T01:26:35.991Z,7.83
2018-05-15T01:26:48.435Z,7.83
2018-05-15T01:27:00.847Z,7.83
2018-05-15T01:27:13.272Z,7.83
2018-05-15T01:27:25.682Z,7.83
2018-05-15T01:27:38.102Z,7.83
2018-05-15T01:27:50.532Z,7.83
2018-05-15T01:28:03.039Z,7.83
2018-05-15T01:28:15.456Z,7.62
2018-05-15T01:28:27.877Z,7.62
2018-05-15T01:28:40.302Z,7.62
2018-05-15T01:28:52.734Z,7.62
2018-05-15T01:29:05.143Z,7.62
2018-05-15T01:29:17.564Z,7.62
2018-05-15T01:29:29.979Z,7.62
2018-05-15T01:29:42.399Z,7.62
2018-05-15T01:29:54.809Z,7.62
2018-05-15T01:30:07.233Z,7.62
2018-05-15T01:30:19.645Z,7.62
2018-05-15T01:30:32.129Z,7.62
2018-05-15T01:30:44.555Z,7.62
2018-05-15T01:30:56.963Z,7.62
2018-05-15T01:31:09.408Z,7.62
2018-05-15T01:31:21.965Z,7.62
2018-05-15T01:31:34.380Z,7.62
2018-05-15T01:31:46.793Z,7.62
2018-05-15T01:31:59.224Z,7.62
2018-05-15T01:32:11.649Z,7.62
2018-05-15T01:32:24.073Z,7.62
2018-05-15T01:32:36.486Z,7.62
2018-05-15T01:32:48.907Z,7.62
2018-05-15T01:33:01.332Z,7.62
2018-05-15T01:33:13.754Z,7.62
2018-05-15T01:33:26.184Z,7.62
2018-05-15T01:33:38.608Z,7.62
2018-05-15T01:33:51.103Z,7.62
2018-05-15T01:34:03.511Z,7.62
2018-05-15T01:34:15.926Z,7.62
2018-05-15T01:34:28.350Z,7.62
2018-05-15T01:34:40.783Z,7.62
2018-05-15T01:34:53.199Z,7.62
2018-05-15T01:35:05.682Z,7.62
2018-05-15T01:35:18.122Z,7.62
2018-05-15T01:35:30.534Z,7.62
2018-05-15T01:35:42.952Z,7.62
2018-05-15T01:35:55.366Z,7.62
2018-05-15T01:36:07.765Z,7.62
2018-05-15T01:36:20.608Z,7.62
2018-05-15T01:36:33.026Z,7.62
2018-05-15T01:36:45.454Z,7.62
2018-05-15T01:36:57.880Z,7.62
2018-05-15T01:37:10.286Z,7.62
2018-05-15T01:37:23.259Z,7.62
2018-05-15T01:37:35.674Z,7.62
2018-05-15T01:37:48.358Z,7.62
2018-05-15T01:38:00.787Z,7.62
2018-05-15T01:38:13.292Z,7.25
2018-05-15T01:38:25.703Z,7.25
2018-05-15T01:38:38.113Z,7.25
2018-05-15T01:38:50.621Z,7.25
2018-05-15T01:39:03.043Z,7.25
2018-05-15T01:39:15.458Z,7.25
2018-05-15T01:39:27.879Z,7.25
2018-05-15T01:39:40.296Z,7.25
2018-05-15T01:39:52.715Z,7.25
2018-05-15T01:40:05.138Z,7.25
2018-05-15T01:40:17.552Z,7.25
2018-05-15T01:40:29.971Z,7.25
2018-05-15T01:40:42.388Z,7.25
2018-05-15T01:40:54.821Z,7.25
2018-05-15T01:41:07.229Z,7.25
2018-05-15T01:41:19.783Z,7.25
2018-05-15T01:41:32.193Z,7.25
2018-05-15T01:41:44.624Z,7.25
2018-05-15T01:41:57.040Z,7.25
2018-05-15T01:42:09.471Z,7.25
2018-05-15T01:42:21.875Z,7.25
2018-05-15T01:42:34.286Z,7.25
2018-05-15T01:42:46.700Z,7.25
2018-05-15T01:42:59.113Z,7.25
2018-05-15T01:43:11.517Z,7.25
2018-05-15T01:43:23.921Z,7.25
2018-05-15T01:43:36.333Z,7.25
2018-05-15T01:43:48.740Z,7.25
2018-05-15T01:44:01.143Z,7.25
2018-05-15T01:44:13.543Z,7.25
2018-05-15T01:44:25.953Z,7.25
2018-05-15T01:44:38.363Z,7.25
2018-05-15T01:44:50.769Z,7.25
2018-05-15T01:45:03.203Z,7.25
2018-05-15T01:45:15.617Z,7.25
2018-05-15T01:45:28.105Z,7.25
2018-05-15T01:45:40.602Z,7.25
2018-05-15T01:45:53.005Z,7.25
2018-05-15T01:46:05.413Z,7.25
2018-05-15T01:46:18.044Z,7.25
2018-05-15T01:46:30.450Z,7.25
2018-05-15T01:46:42.863Z,7.25
2018-05-15T01:46:55.270Z,7.25
2018-05-15T01:47:07.689Z,7.25
2018-05-15T01:47:20.122Z,7.25
2018-05-15T01:47:32.548Z,7.25
2018-05-15T01:47:44.964Z,7.25
2018-05-15T01:47:57.382Z,7.25
2018-05-15T01:48:09.812Z,8.41
2018-05-15T01:48:22.319Z,8.41
2018-05-15T01:48:34.734Z,8.41
2018-05-15T01:48:47.151Z,8.41
2018-05-15T01:48:59.594Z,8.41
2018-05-15T01:49:12.017Z,8.41
2018-05-15T01:49:24.424Z,8.41
2018-05-15T01:49:36.844Z,8.41
2018-05-15T01:49:49.271Z,8.41
2018-05-15T01:50:01.687Z,8.41
2018-05-15T01:50:14.105Z,8.41
2018-05-15T01:50:26.572Z,8.41
2018-05-15T01:50:39.057Z,8.41
2018-05-15T01:50:51.461Z,8.41
2018-05-15T01:51:03.870Z,8.41
2018-05-15T01:51:16.285Z,8.41
2018-05-15T01:51:28.705Z,8.41
2018-05-15T01:51:41.117Z,8.41
2018-05-15T01:51:53.658Z,8.41
2018-05-15T01:52:06.207Z,8.41
2018-05-15T01:52:18.628Z,8.41
2018-05-15T01:52:31.031Z,8.41
2018-05-15T01:52:43.442Z,8.41
2018-05-15T01:52:55.868Z,8.41
2018-05-15T01:53:08.298Z,8.41
2018-05-15T01:53:20.725Z,8.41
2018-05-15T01:53:33.137Z,8.41
2018-05-15T01:53:45.548Z,8.41
2018-05-15T01:53:57.954Z,8.41
2018-05-15T01:54:10.368Z,8.41
2018-05-15T01:54:22.794Z,8.41
2018-05-15T01:54:35.213Z,8.41
2018-05-15T01:54:47.628Z,8.41
2018-05-15T01:55:00.029Z,8.41
2018-05-15T01:55:12.463Z,8.41
2018-05-15T01:55:24.892Z,8.41
2018-05-15T01:55:37.297Z,8.41
2018-05-15T01:55:49.758Z,8.41
2018-05-15T01:56:02.177Z,8.41
2018-05-15T01:56:14.571Z,8.41
2018-05-15T01:56:26.981Z,8.41
2018-05-15T01:56:39.406Z,8.41
2018-05-15T01:56:51.810Z,8.41
2018-05-15T01:57:04.291Z,8.41
2018-05-15T01:57:16.707Z,8.41
2018-05-15T01:57:29.104Z,8.41
2018-05-15T01:57:41.518Z,8.41
2018-05-15T01:57:54.023Z,8.41
2018-05-15T01:58:06.440Z,8.41
2018-05-15T01:58:18.848Z,5.98
2018-05-15T01:58:31.258Z,5.98
2018-05-15T01:58:43.672Z,5.98
2018-05-15T01:58:56.094Z,5.98
2018-05-15T01:59:08.518Z,5.98
2018-05-15T01:59:20.932Z,5.98
2018-05-15T01:59:33.401Z,5.98
2018-05-15T01:59:45.826Z,5.98
2018-05-15T01:59:58.250Z,5.98
2018-05-15T02:00:10.845Z,5.98
2018-05-15T02:00:23.289Z,5.98
2018-05-15T02:00:35.771Z,5.98
2018-05-15T02:00:48.234Z,5.98
2018-05-15T02:01:00.665Z,5.98
2018-05-15T02:01:13.141Z,5.98
2018-05-15T02:01:25.616Z,5.98
2018-05-15T02:01:38.021Z,5.98
2018-05-15T02:01:50.471Z,5.98
2018-05-15T02:02:02.901Z,5.98
2018-05-15T02:02:15.335Z,5.98
2018-05-15T02:02:27.834Z,5.98
2018-05-15T02:02:40.248Z,5.98
2018-05-15T02:02:52.657Z,5.98
2018-05-15T02:03:05.098Z,5.98
2018-05-15T02:03:17.579Z,5.98
2018-05-15T02:03:29.989Z,5.98
2018-05-15T02:03:42.413Z,5.98
2018-05-15T02:03:54.897Z,5.98
2018-05-15T02:04:07.551Z,5.98
2018-05-15T02:04:19.965Z,5.98
2018-05-15T02:04:32.401Z,5.98
2018-05-15T02:04:44.892Z,5.98
2018-05-15T02:04:57.314Z,5.98
2018-05-15T02:05:09.762Z,5.98
2018-05-15T02:05:22.186Z,5.98
2018-05-15T02:05:34.592Z,5.98
2018-05-15T02:05:47.005Z,5.98
2018-05-15T02:05:59.428Z,5.98
2018-05-15T02:06:11.852Z,5.98
2018-05-15T02:06:24.262Z,5.98
2018-05-15T02:06:36.683Z,5.98
2018-05-15T02:06:49.115Z,5.98
2018-05-15T02:07:01.520Z,5.98
2018-05-15T02:07:13.945Z,5.98
2018-05-15T02:07:26.364Z,5.98
2018-05-15T02:07:38.783Z,5.98
2018-05-15T02:07:51.192Z,5.98
2018-05-15T02:08:03.602Z,5.98
2018-05-15T02:08:16.009Z,8.88
2018-05-15T02:08:28.426Z,8.88
2018-05-15T02:08:40.846Z,8.88
2018-05-15T02:08:53.256Z,8.88
2018-05-15T02:09:05.704Z,8.88
2018-05-15T02:09:18.102Z,8.88
2018-05-15T02:09:30.516Z,8.88
2018-05-15T02:09:42.924Z,8.88
2018-05-15T02:09:55.339Z,8.88
2018-05-15T02:10:07.860Z,8.88
2018-05-15T02:10:20.295Z,8.88
2018-05-15T02:10:32.861Z,8.88
2018-05-15T02:10:45.301Z,8.88
2018-05-15T02:10:57.714Z,8.88
2018-05-15T02:11:10.118Z,8.88
2018-05-15T02:11:22.534Z,8.88
2018-05-15T02:11:34.947Z,8.88
2018-05-15T02:11:47.551Z,8.88
2018-05-15T02:11:59.965Z,8.88
2018-05-15T02:12:12.397Z,8.88
2018-05-15T02:12:24.808Z,8.88
2018-05-15T02:12:37.223Z,8.88
2018-05-15T02:12:49.634Z,8.88
2018-05-15T02:13:02.042Z,8.88
2018-05-15T02:13:14.459Z,8.88
2018-05-15T02:13:26.858Z,8.88
2018-05-15T02:13:39.434Z,8.88
2018-05-15T02:13:51.846Z,8.88
2018-05-15T02:14:04.318Z,8.88
2018-05-15T02:14:16.742Z,8.88
2018-05-15T02:14:29.164Z,8.88
2018-05-15T02:14:41.568Z,8.88
2018-05-15T02:14:53.974Z,8.88
2018-05-15T02:15:06.410Z,8.88
2018-05-15T02:15:18.829Z,8.88
2018-05-15T02:15:31.283Z,8.88
2018-05-15T02:15:43.829Z,8.88
2018-05-15T02:15:56.253Z,8.88
2018-05-15T02:16:08.684Z,8.88
2018-05-15T02:16:21.374Z,8.88
2018-05-15T02:16:33.782Z,8.88
2018-05-15T02:16:46.201Z,8.88
2018-05-15T02:16:58.623Z,8.88
2018-05-15T02:17:11.048Z,8.88
2018-05-15T02:17:23.465Z,8.88
2018-05-15T02:17:35.868Z,8.88
2018-05-15T02:17:48.285Z,8.88
2018-05-15T02:18:00.693Z,8.88
2018-05-15T02:18:13.119Z,8.4
2018-05-15T02:18:25.675Z,8.4
2018-05-15T02:18:38.086Z,8.4
2018-05-15T02:18:50.507Z,8.4
2018-05-15T02:19:02.921Z,8.4
2018-05-15T02:19:15.334Z,8.4
2018-05-15T02:19:27.799Z,8.4
2018-05-15T02:19:40.231Z,8.4
2018-05-15T02:19:52.711Z,8.4
2018-05-15T02:20:05.140Z,8.4
2018-05-15T02:20:17.560Z,8.4
2018-05-15T02:20:29.974Z,8.4
2018-05-15T02:20:42.386Z,8.4
2018-05-15T02:20:54.801Z,8.4
2018-05-15T02:21:07.220Z,8.4
2018-05-15T02:21:19.623Z,8.4
2018-05-15T02:21:32.120Z,8.4
2018-05-15T02:21:44.528Z,8.4
2018-05-15T02:21:56.938Z,8.4
2018-05-15T02:22:09.362Z,8.4
2018-05-15T02:22:21.782Z,8.4
2018-05-15T02:22:34.196Z,8.4
2018-05-15T02:22:46.602Z,8.4
2018-05-15T02:22:59.014Z,8.4
2018-05-15T02:23:11.433Z,8.4
2018-05-15T02:23:23.911Z,8.4
2018-05-15T02:23:36.321Z,8.4
2018-05-15T02:23:48.810Z,8.4
2018-05-15T02:24:01.273Z,8.4
2018-05-15T02:24:13.678Z,8.4
2018-05-15T02:24:26.095Z,8.4
2018-05-15T02:24:38.562Z,8.4
2018-05-15T02:24:51.103Z,8.4
2018-05-15T02:25:03.520Z,8.4
2018-05-15T02:25:15.933Z,8.4
2018-05-15T02:25:28.341Z,8.4
2018-05-15T02:25:40.751Z,8.4
2018-05-15T02:25:53.146Z,8.4
2018-05-15T02:26:05.552Z,8.4
2018-05-15T02:26:18.043Z,8.4
2018-05-15T02:26:30.457Z,8.4
2018-05-15T02:26:42.954Z,8.4
2018-05-15T02:26:55.376Z,8.4
2018-05-15T02:27:07.795Z,8.4
2018-05-15T02:27:20.209Z,8.4
2018-05-15T02:27:32.613Z,8.4
2018-05-15T02:27:45.120Z,8.4
2018-05-15T02:27:57.546Z,8.4
2018-05-15T02:28:09.964Z,8.08
2018-05-15T02:28:22.371Z,8.08
2018-05-15T02:28:34.778Z,8.08
2018-05-15T02:28:47.194Z,8.08
2018-05-15T02:28:59.591Z,8.08
2018-05-15T02:29:12.008Z,8.08
2018-05-15T02:29:24.401Z,8.08
2018-05-15T02:29:36.833Z,8.08
2018-05-15T02:29:49.275Z,8.08
2018-05-15T02:30:01.696Z,8.08
2018-05-15T02:30:14.136Z,8.08
2018-05-15T02:30:27.068Z,8.08
2018-05-15T02:30:40.367Z,8.08
2018-05-15T02:30:52.780Z,8.08
2018-05-15T02:31:05.224Z,8.08
2018-05-15T02:31:17.824Z,8.08
2018-05-15T02:31:30.254Z,8.08
2018-05-15T02:31:42.687Z,8.08
2018-05-15T02:31:55.224Z,8.08
2018-05-15T02:32:07.680Z,8.08
2018-05-15T02:32:20.137Z,8.08
2018-05-15T02:32:32.562Z,8.08
2018-05-15T02:32:44.999Z,8.08
2018-05-15T02:32:57.443Z,8.08
2018-05-15T02:33:09.855Z,8.08
2018-05-15T02:33:22.296Z,8.08
2018-05-15T02:33:34.724Z,8.08
2018-05-15T02:33:47.160Z,8.08
2018-05-15T02:33:59.591Z,8.08
2018-05-15T02:34:12.030Z,8.08
2018-05-15T02:34:24.483Z,8.08
2018-05-15T02:34:36.944Z,8.08
2018-05-15T02:34:49.376Z,8.08
2018-05-15T02:35:01.809Z,8.08
2018-05-15T02:35:14.241Z,8.08
2018-05-15T02:35:26.701Z,8.08
2018-05-15T02:35:39.147Z,8.08
2018-05-15T02:35:51.565Z,8.08
2018-05-15T02:36:04.007Z,8.08
2018-05-15T02:36:16.502Z,8.08
2018-05-15T02:36:28.921Z,8.08
2018-05-15T02:36:41.361Z,8.08
2018-05-15T02:36:53.782Z,8.08
2018-05-15T02:37:06.226Z,8.08
2018-05-15T02:37:18.807Z,8.08
2018-05-15T02:37:31.230Z,8.08
2018-05-15T02:37:43.652Z,8.08
2018-05-15T02:37:56.098Z,8.08
2018-05-15T02:38:08.577Z,8.08
2018-05-15T02:38:21.024Z,6.21
2018-05-15T02:38:33.459Z,6.21
2018-05-15T02:38:45.867Z,6.21
2018-05-15T02:38:58.282Z,6.21
2018-05-15T02:39:10.745Z,6.21
2018-05-15T02:39:23.176Z,6.21
2018-05-15T02:39:35.623Z,6.21
2018-05-15T02:39:48.040Z,6.21
2018-05-15T02:40:00.479Z,6.21
2018-05-15T02:40:12.903Z,6.21
2018-05-15T02:40:25.324Z,6.21
2018-05-15T02:40:37.756Z,6.21
2018-05-15T02:40:50.178Z,6.21
2018-05-15T02:41:02.608Z,6.21
2018-05-15T02:41:15.039Z,6.21
2018-05-15T02:41:27.481Z,6.21
2018-05-15T02:41:39.895Z,6.21
2018-05-15T02:41:52.329Z,6.21
2018-05-15T02:42:04.770Z,6.21
2018-05-15T02:42:17.192Z,6.21
2018-05-15T02:42:29.695Z,6.21
2018-05-15T02:42:42.157Z,6.21
2018-05-15T02:42:54.594Z,6.21
2018-05-15T02:43:07.027Z,6.21
2018-05-15T02:43:19.460Z,6.21
2018-05-15T02:43:31.906Z,6.21
2018-05-15T02:43:44.350Z,6.21
2018-05-15T02:43:56.785Z,6.21
2018-05-15T02:44:09.237Z,6.21
2018-05-15T02:44:21.647Z,6.21
2018-05-15T02:44:34.109Z,6.21
2018-05-15T02:44:46.548Z,6.21
2018-05-15T02:44:58.974Z,6.21
2018-05-15T02:45:11.417Z,6.21
2018-05-15T02:45:23.835Z,6.21
2018-05-15T02:45:36.278Z,6.21
2018-05-15T02:45:48.718Z,6.21
2018-05-15T02:46:01.142Z,6.21